Main page
METAR-TAF:

METAR-TAF

Airports :

Rota, Spain

Naval Station Rota

latitude: 36-39N, longitude: 006-21W, elevation: 26 m

Current weather observation

The report was made 36 minutes ago, at 04:00 UTC
Wind 3 kt from the East
Temperature 14°C
Humidity 100%
Pressure 1016 hPa
Visibility: 2500 m
mist

METAR: LERT 270400Z 08003KT 2500 BR NSC 14/14 Q1016 NOSIG

Time: 06:36 (04:36 UTC)

Forecast

The report was made 2 hours and 36 minutes ago, at 02:00 UTC
Forecast valid from 27 at 03 UTC to 27 at 12 UTC
Wind 4 kt from the Northwest
Visibility 10 km or more
Few clouds at a height of 1000 ft
Scattered clouds at a height of 2000 ft
Temporary
from 27 at 03 UTC to 27 at 09 UTC
Visibility: 4000 m
Broken clouds at a height of 800 ft
mist
Probability 30% :
Temporary
from 27 at 03 UTC to 27 at 08 UTC
Visibility: 0300 m
at a height of 100 ft
fog

TAF: LERT 270200Z 2703/2712 32004KT 9999 FEW010 SCT020 TEMPO 2703/2709 4000 BR BKN008 PROB30 TEMPO 2703/2708 0300 FG VV001

Weather observations and forecasts of more than 4000 airports (METAR and TAF reports).

The available stations are represented by yellow and red dots on the map.

Hover mouse over dot to see the name of the station.

Then click to see weather observations and forecasts.

To change the map : click on the green buttons with a black cross to zoom in, on the green button with a dash to zoom out, or on the green arrows for adjacent maps.


METAR-TAF: